Terminal Aerodrome Forecast
Issued by NWS Milwaukee/Sullivan, WI

Home | Current Version | Previous Version | Text Only | Print | Product List | Glossary On
Versions: 1 2 3 4 5 6 7 8 9 10 11 12 13 14 15 16 17 18 19 20 21 22 23 24 25 26 27 28 29 30 31 32 33 34 35 36 37 38 39 40 41 42 43 44 45 46 47 48 49 50
000
FTUS43 KMKX 200228 AAA
TAFMKE
TAF AMD
KMKE 200228Z 2002/2106 22012KT P6SM -SHRA BKN120
     FM200330 22012KT P6SM BKN150
     FM200700 24010G17KT P6SM SCT250
     FM201100 27008KT P6SM SCT250
     FM201400 30009KT P6SM SCT050 BKN200
     FM201800 33010KT P6SM BKN050
     FM210000 35006KT P6SM BKN040
     FM210200 35006KT P6SM BKN035=

USA.gov is the U.S. government's official web portal to all federal, state and local government web resources and services.